Date,TemperatureHighF,TemperatureAvgF,TemperatureLowF,DewpointHighF,DewpointAvgF,DewpointLowF,HumidityHigh,HumidityAvg,HumidityLow,PressureMaxIn,PressureMinIn,WindSpeedMaxMPH,WindSpeedAvgMPH,GustSpeedMaxMPH,PrecipitationSumIn
2013-1-1,45.7,43.1,37.9,44.2,39.8,33.3,95,88,78,30.25,30.02,12,4,15,0.02
2013-1-2,40.8,36.3,30.6,33.5,31.2,28.5,92,82,68,30.33,30.25,12,3,13,0.00
2013-1-3,50.5,38.8,26.4,35.8,30.8,24.8,95,75,48,30.45,30.33,11,2,13,0.00
2013-1-4,50.9,45.1,39.2,37.5,32.6,28.4,82,62,44,30.51,30.35,5,1,8,0.00
2013-1-5,55.5,44.9,36.0,41.7,38.4,34.0,94,79,55,30.35,30.21,10,1,10,0.00
2013-1-6,57.5,42.2,32.0,39.7,33.5,28.4,96,74,38,30.36,30.28,12,2,13,0.00
2013-1-7,54.7,42.6,29.0,39.7,34.1,27.2,94,74,45,30.35,30.10,12,1,12,0.00
2013-1-8,52.3,48.3,45.6,51.2,44.6,36.2,96,87,68,30.11,29.95,10,2,10,0.57
2013-1-9,55.5,53.4,50.2,54.4,52.2,49.1,97,96,95,30.12,29.98,14,2,16,2.99
2013-1-10,65.4,57.2,47.3,58.5,51.9,44.2,97,83,60,30.01,29.87,16,4,21,0.02
2013-1-11,72.2,60.2,47.3,58.0,49.4,44.1,89,70,42,29.96,29.78,17,6,22,0.00
2013-1-12,71.4,59.3,38.4,68.1,56.8,35.3,96,91,74,29.86,29.63,20,5,22,0.34
2013-1-13,45.0,37.7,31.1,35.8,30.7,24.0,89,76,61,30.26,29.85,17,8,22,0.01
2013-1-14,46.1,36.6,29.0,31.5,26.5,23.5,82,67,49,30.35,30.20,12,4,15,0.00
2013-1-15,36.8,34.0,31.0,33.3,29.1,23.0,93,82,61,30.22,30.12,13,5,16,0.07
2013-1-16,48.2,36.6,27.0,29.6,25.0,19.8,88,65,37,30.27,30.15,11,3,13,0.00
2013-1-17,60.1,44.1,28.7,38.4,32.7,24.7,90,66,42,30.48,30.23,13,2,15,0.00
2013-1-18,61.4,46.0,32.1,39.4,35.1,29.9,95,68,38,30.51,30.28,11,3,14,0.00
2013-1-19,65.1,49.2,35.9,44.6,39.2,33.1,91,70,42,30.28,30.15,18,3,18,0.00
2013-1-20,68.6,51.0,36.8,51.4,43.5,35.5,96,78,45,30.22,30.07,16,1,16,0.00
2013-1-21,61.0,48.9,41.0,46.4,41.8,35.7,96,78,52,30.25,30.11,10,2,11,0.00
2013-1-22,60.5,48.2,38.0,46.9,39.5,32.4,88,72,56,30.32,30.19,9,2,10,0.00
2013-1-23,72.8,57.5,42.5,55.9,49.8,40.3,95,77,49,30.26,30.13,13,2,15,0.00
2013-1-24,72.2,60.4,48.7,61.2,56.0,47.0,96,86,66,30.18,30.04,12,3,14,0.00
2013-1-25,63.3,52.9,47.2,60.2,50.1,45.3,96,90,80,30.17,29.99,13,2,15,0.00
2013-1-26,50.8,47.8,46.6,47.4,46.1,45.2,96,94,87,30.22,30.12,9,4,10,0.01
2013-1-27,73.8,61.3,47.3,63.6,56.7,46.2,97,86,63,30.12,29.93,16,6,18,0.00
2013-1-28,75.8,69.7,64.9,66.2,62.9,59.6,90,80,62,30.01,29.84,20,9,26,0.00
2013-1-29,76.0,66.1,53.3,66.8,61.5,49.2,93,86,54,29.85,29.42,25,8,33,0.65
2013-1-30,54.8,46.4,36.3,48.9,33.8,26.3,87,63,40,30.14,29.66,21,4,21,0.02
2013-1-31,66.8,49.1,35.5,37.9,29.3,22.8,80,51,20,30.30,30.10,17,4,17,0.00
2013-2-1,60.8,48.1,35.8,42.3,34.3,26.6,72,60,39,30.39,30.18,13,5,15,0.00
2013-2-2,67.0,53.9,41.9,51.4,42.2,36.2,85,66,36,30.29,30.14,12,3,16,0.00
2013-2-3,67.8,51.5,35.2,46.5,38.0,30.3,91,64,26,30.30,29.98,7,1,9,0.00
2013-2-4,65.0,57.5,53.1,57.6,48.6,35.2,95,74,45,29.98,29.79,13,3,14,0.00
2013-2-5,65.1,58.3,53.0,60.9,56.3,51.7,97,93,83,30.00,29.86,6,0,8,0.00
2013-2-6,61.4,57.3,53.0,59.2,55.8,51.9,97,94,90,30.03,29.90,13,4,15,0.00
2013-2-7,68.9,59.9,54.5,60.7,56.3,50.1,97,88,71,30.01,29.80,15,4,20,0.00
2013-2-8,63.8,53.0,45.2,50.0,43.6,38.2,86,72,40,30.22,30.01,15,5,18,0.00
2013-2-9,56.7,48.4,43.6,54.9,44.6,39.9,94,87,70,30.15,29.78,17,6,17,0.06
2013-2-10,67.2,59.4,48.1,63.8,48.0,29.3,95,71,25,30.00,29.65,20,3,26,0.34
2013-2-11,55.5,50.8,48.2,48.3,41.9,35.6,90,72,47,30.14,29.98,7,2,9,0.02
2013-2-12,50.9,48.2,45.2,48.6,46.0,42.6,95,92,85,30.06,29.80,14,3,15,0.71
2013-2-13,50.2,43.8,39.7,43.0,39.0,36.7,91,83,70,30.15,29.95,13,2,19,0.00
2013-2-14,66.2,48.9,34.1,44.0,37.7,32.0,96,70,28,30.11,30.00,11,1,14,0.00
2013-2-15,51.9,46.5,38.5,43.0,33.7,23.6,93,63,35,30.36,30.05,14,5,15,0.01
2013-2-16,52.2,42.0,32.9,36.2,30.2,22.9,84,64,42,30.39,30.18,13,2,13,0.00
2013-2-17,69.2,54.7,36.9,43.8,35.0,30.4,79,51,26,30.18,29.93,22,7,25,0.00
2013-2-18,63.1,57.2,52.4,55.8,45.8,36.6,80,67,46,30.07,29.81,21,10,25,0.00
2013-2-19,61.4,51.6,41.0,41.2,32.3,24.8,68,49,26,30.32,30.07,11,3,13,0.00
2013-2-20,52.6,45.3,40.8,40.0,37.3,30.7,88,75,43,30.19,29.83,16,8,18,0.12
2013-2-21,48.2,44.9,42.9,45.4,38.9,34.6,92,80,66,29.90,29.64,18,8,20,0.09
2013-2-22,49.2,43.0,35.7,42.5,33.2,29.4,91,69,50,30.11,29.90,13,5,14,0.00
2013-2-23,55.5,44.1,34.3,38.3,31.1,27.3,80,62,40,30.06,29.92,12,3,12,0.00
2013-2-27,42.5,42.5,42.5,29.2,29.2,29.2,59,59,59,30.16,30.16,5,5,15,0.00
2013-2-28,57.1,46.2,34.4,33.4,29.9,27.1,81,55,34,30.25,30.13,15,5,18,0.00
2013-3-1,53.1,43.7,32.5,34.3,31.0,28.2,84,62,41,30.26,30.16,18,5,18,0.00
2013-3-2,51.6,40.5,33.0,31.9,26.0,20.6,83,58,34,30.40,30.24,16,5,19,1.20
2013-3-3,67.3,51.3,31.2,40.7,33.0,26.1,88,54,31,30.24,29.83,20,7,20,0.00
2013-3-4,78.1,65.6,55.2,57.0,50.1,40.7,78,59,35,29.83,29.59,32,10,32,0.00
2013-3-5,66.1,52.2,45.1,57.6,33.5,23.1,76,51,27,30.33,29.64,26,8,28,0.00
2013-3-6,60.0,47.1,37.2,38.9,28.8,17.9,76,50,21,30.44,30.19,16,2,16,0.00
2013-3-7,68.0,53.8,39.3,37.9,33.5,28.0,78,48,27,30.27,30.11,14,4,16,0.00
2013-3-8,67.5,58.7,48.1,51.8,45.7,35.5,78,62,46,30.21,30.01,14,4,14,0.00
2013-3-9,71.7,64.5,57.4,61.3,57.3,45.7,86,78,61,30.01,29.65,23,11,29,0.00
2013-3-10,66.4,51.9,39.5,60.6,42.0,31.3,93,70,48,30.05,29.66,21,5,21,0.47
2013-3-11,56.6,44.0,32.8,35.6,30.2,25.2,85,61,31,30.08,29.99,12,2,17,0.00
2013-3-12,67.0,51.1,34.7,42.2,33.5,25.2,90,57,23,30.28,30.03,11,1,11,0.00
2013-3-13,66.5,56.3,46.6,44.5,36.0,29.1,78,50,27,30.44,30.28,5,1,7,0.00
2013-3-14,75.5,60.4,46.7,47.8,41.1,34.5,73,51,32,30.35,30.16,18,3,18,0.00
2013-3-15,79.1,65.9,53.2,55.1,49.2,44.0,83,57,33,30.16,29.88,18,6,22,0.00
2013-3-16,78.5,68.3,58.0,58.9,55.0,50.3,88,64,47,29.88,29.69,20,9,23,0.00
2013-3-17,76.1,66.8,54.6,62.2,58.6,51.3,91,76,58,29.77,29.61,18,5,18,0.00
2013-3-18,70.1,62.2,52.7,65.2,52.9,42.3,93,73,48,29.99,29.61,16,5,20,0.00
2013-3-19,67.8,57.8,49.5,49.3,43.3,39.0,80,60,39,30.10,29.93,10,3,13,0.00
2013-3-20,66.8,57.1,49.0,43.8,37.4,29.3,73,50,26,30.28,30.03,11,2,12,0.00
2013-3-21,64.6,56.3,49.0,55.3,40.3,33.2,76,55,40,30.02,29.60,18,6,27,0.00
2013-3-22,64.4,64.0,63.4,57.0,56.4,55.4,79,76,73,29.62,29.61,14,7,15,0.00
2013-3-24,52.9,46.4,40.5,47.5,33.8,26.6,90,63,44,30.15,29.80,20,7,27,0.01
2013-3-25,54.4,44.0,30.6,28.4,24.0,18.0,75,47,26,30.38,30.15,19,6,20,0.00
2013-3-26,55.4,44.2,34.2,34.1,24.8,21.3,70,48,27,30.49,30.31,13,3,13,0.00
2013-3-27,67.8,53.2,36.6,46.5,32.7,26.1,79,48,26,30.34,30.11,17,5,17,0.00
2013-3-28,70.5,61.5,50.9,56.2,50.9,39.6,82,69,51,30.23,30.09,16,6,16,0.00
2013-3-29,74.0,66.8,59.0,59.5,57.2,54.8,87,72,59,30.17,30.05,14,4,16,0.00
2013-3-30,76.5,65.5,56.6,66.8,60.1,54.9,95,83,68,30.05,29.88,14,3,19,0.65
2013-3-31,73.6,64.2,55.4,63.0,58.9,53.3,94,84,61,29.95,29.81,19,2,24,0.15
2013-4-1,79.6,64.4,49.0,58.2,52.7,47.6,96,70,39,30.05,29.91,0,0,0,0.01
2013-4-2,74.4,63.8,50.5,62.0,55.3,43.6,93,74,61,30.03,29.89,17,2,17,0.44
2013-4-3,53.3,49.2,44.4,47.3,44.3,40.7,93,83,72,30.13,29.95,15,3,15,0.12
2013-4-4,50.2,45.4,42.3,43.8,41.5,40.2,93,87,76,30.17,30.07,11,3,15,0.20
2013-4-5,70.1,54.2,40.2,52.2,45.1,38.7,95,75,44,30.22,30.03,7,0,9,0.00
2013-4-6,76.3,64.7,53.1,58.5,52.2,48.0,90,66,42,30.04,29.83,17,5,25,0.00
2013-4-7,72.7,66.9,59.5,61.0,59.0,56.2,90,76,65,29.92,29.75,16,7,18,0.00
2013-4-8,76.5,70.6,62.3,63.6,61.2,57.9,89,73,62,29.77,29.67,22,8,22,0.00
2013-4-9,83.9,75.3,68.0,67.6,63.9,60.9,84,69,49,29.72,29.62,22,9,23,0.00
2013-4-10,75.3,53.2,43.3,68.4,49.4,39.0,93,87,75,29.92,29.66,15,6,19,0.26
2013-4-11,43.7,40.7,38.7,38.9,35.8,34.2,85,82,79,29.95,29.89,13,6,16,0.00
2013-4-13,75.4,69.2,65.7,53.5,49.7,47.0,57,50,40,29.82,29.77,10,3,14,0.00
2013-4-14,80.6,69.0,53.3,64.1,57.7,49.2,92,68,51,29.76,29.54,14,4,19,0.00
2013-4-15,84.4,75.3,67.5,68.6,65.8,63.2,90,73,53,29.73,29.60,15,7,18,0.00
2013-4-16,87.0,77.7,70.7,69.5,67.0,64.8,83,71,48,29.88,29.73,15,3,16,0.00
2013-4-17,84.9,78.0,73.7,70.4,68.6,65.8,85,74,55,29.87,29.63,0,0,0,0.00
2013-4-18,75.5,58.3,47.2,68.7,51.2,35.4,92,78,62,30.11,29.56,0,0,0,1.08
2013-4-19,61.0,49.4,35.8,43.0,35.0,31.0,88,60,34,30.23,30.10,0,0,0,0.00
2013-4-20,70.4,57.7,42.6,47.3,39.8,35.9,79,54,30,30.20,30.02,0,0,0,0.00
2013-4-21,71.3,59.5,45.7,52.0,46.4,41.2,89,64,40,30.21,30.05,0,0,0,0.00
2013-4-22,76.6,65.0,52.3,58.7,52.4,45.4,86,65,46,30.11,29.85,0,0,0,0.00
2013-4-23,74.5,60.1,46.0,64.6,54.3,40.9,91,81,68,30.09,29.80,0,0,0,0.00
2013-4-24,62.3,51.1,41.1,47.8,41.6,36.9,90,71,48,30.28,30.11,0,0,0,0.26
2013-4-25,72.1,60.9,49.7,51.4,45.1,40.1,79,58,33,30.32,30.16,0,0,0,0.00
2013-4-26,75.4,66.0,58.3,66.3,56.8,44.9,86,73,56,30.18,29.97,0,0,0,0.00
2013-4-27,75.8,69.4,59.8,67.2,62.7,55.2,89,80,66,30.03,29.95,0,0,1,0.00
2013-4-28,78.7,64.6,52.0,67.0,59.3,50.6,96,84,63,30.04,29.84,2,0,4,0.00
2013-4-29,82.5,71.5,59.4,68.0,61.1,55.6,96,72,41,29.89,29.77,0,0,0,0.00
2013-4-30,82.6,71.2,57.1,67.1,61.8,55.5,95,74,49,29.81,29.72,0,0,0,0.00
2013-5-1,82.0,71.2,63.4,69.6,64.6,61.4,94,81,57,29.92,29.78,0,0,0,0.00
2013-5-2,68.2,56.1,43.4,64.1,51.9,39.5,93,86,77,30.25,29.91,17,5,24,0.11
2013-5-3,65.2,51.8,42.0,40.7,36.9,30.0,89,61,29,30.23,30.00,22,7,24,0.00
2013-5-4,71.7,57.0,43.3,41.8,38.0,32.3,79,53,24,30.00,29.84,17,3,19,0.00
2013-5-5,65.8,55.4,45.8,49.3,44.6,40.0,85,68,46,30.10,29.98,13,4,14,0.00
2013-5-6,51.1,47.5,45.8,47.2,45.1,43.9,93,91,86,30.04,30.02,0,0,3,0.00
2013-5-10,72.1,70.4,69.7,63.0,61.9,61.3,75,74,73,29.98,29.98,0,0,0,0.00
2013-5-11,72.3,63.9,58.4,61.4,57.3,52.6,86,79,50,30.13,29.94,1,0,5,0.00
2013-5-12,76.1,65.7,56.4,56.0,46.8,37.9,83,53,26,30.23,30.11,9,1,10,0.00
2013-5-13,83.7,68.0,52.1,56.2,49.8,44.7,83,55,30,30.23,30.08,11,2,12,0.00
2013-5-14,84.9,73.4,62.6,64.2,56.5,51.8,82,58,33,30.14,29.97,12,3,15,0.00
2013-5-15,77.2,69.1,65.8,68.0,63.8,55.8,94,84,58,30.03,29.81,15,5,20,0.92
2013-5-16,76.9,69.6,63.2,71.4,66.5,61.5,95,90,80,29.87,29.66,17,2,23,0.50
2013-5-17,86.9,77.2,68.3,74.8,71.6,66.8,96,84,64,29.84,29.76,11,2,13,0.00
2013-5-18,89.7,80.4,71.1,75.2,71.5,68.0,92,76,56,29.89,29.75,12,4,15,0.00
2013-5-19,88.5,79.7,71.0,71.6,68.4,65.5,88,70,49,29.82,29.66,17,7,24,0.00
2013-5-20,86.8,79.5,72.9,73.2,70.3,68.4,86,74,59,29.81,29.65,18,8,20,0.00
2013-5-21,85.5,74.3,62.6,74.6,68.4,60.8,95,83,59,29.81,29.62,17,4,21,2.94
2013-5-22,82.1,70.3,61.0,69.6,63.8,58.0,96,81,51,29.91,29.80,6,1,9,0.01
2013-5-23,86.1,79.0,70.2,76.5,72.5,68.0,93,81,66,30.04,29.90,7,0,8,0.00
2013-5-24,85.1,77.6,71.7,75.1,71.9,66.8,93,83,70,30.13,29.98,8,1,15,0.00
2013-5-25,84.4,76.4,70.3,75.4,70.3,66.3,93,82,65,30.14,30.01,12,2,13,0.00
2013-5-26,82.4,75.7,71.1,74.7,70.5,66.9,93,84,72,30.06,29.92,12,3,13,0.02
2013-5-27,85.6,78.4,71.5,71.3,69.2,66.8,90,74,55,29.97,29.79,14,5,19,0.00
2013-5-28,85.6,78.6,71.7,70.0,68.2,65.8,88,71,53,29.87,29.76,16,7,19,0.00
2013-5-29,83.9,78.0,72.6,72.1,69.9,68.3,87,76,66,29.84,29.71,16,8,20,0.00
2013-5-30,86.2,80.1,75.4,75.0,72.1,69.4,85,77,66,29.79,29.68,17,7,21,0.00
2013-5-31,89.5,82.5,77.2,78.1,73.6,72.0,87,75,59,29.82,29.65,17,6,17,0.00
2013-6-1,88.9,79.9,70.9,77.4,72.9,66.6,92,79,64,29.89,29.70,18,4,18,0.03
2013-6-2,82.7,74.7,67.8,70.8,63.4,55.3,93,70,41,30.01,29.88,10,2,10,0.00
2013-6-3,85.4,74.6,62.3,68.6,63.7,58.3,88,70,47,29.96,29.81,6,1,7,0.00
2013-6-4,88.3,78.5,68.9,73.4,68.9,63.8,85,73,55,29.98,29.77,12,3,15,0.00
2013-6-5,88.5,79.2,69.7,77.3,72.1,67.3,93,80,56,29.93,29.71,11,1,17,0.01
2013-6-6,78.7,73.3,68.2,74.4,69.2,65.3,93,87,77,29.88,29.74,13,1,19,0.47
2013-6-7,84.9,74.3,65.0,66.9,62.3,58.2,87,68,42,29.93,29.84,9,2,11,0.00
2013-6-8,88.3,75.1,61.6,67.9,64.1,59.2,96,71,46,29.92,29.77,11,2,11,0.00
2013-6-9,90.0,76.8,69.7,73.5,69.3,65.1,93,79,52,29.91,29.82,12,1,14,0.15
2013-6-10,96.0,82.5,69.5,77.0,71.6,67.4,95,72,43,29.92,29.86,9,1,10,0.00
2013-6-11,92.4,82.5,72.6,76.5,72.8,69.7,92,74,55,29.99,29.88,11,3,13,0.00
2013-6-12,91.0,82.5,75.2,75.9,73.7,71.7,93,76,57,30.02,29.89,8,2,13,0.00
2013-6-13,78.8,76.3,75.2,72.5,71.8,71.1,90,86,81,29.94,29.93,3,0,4,0.00
2013-6-15,77.4,75.7,73.2,74.9,73.5,69.8,95,93,89,29.91,29.87,5,0,18,0.01
2013-6-16,92.2,83.6,76.6,79.8,74.2,70.6,93,75,51,29.97,29.83,8,2,9,0.00
2013-6-17,88.1,79.5,68.8,78.4,73.7,66.5,94,83,66,30.01,29.82,20,2,20,0.60
2013-6-18,82.4,77.8,72.6,76.1,72.4,69.7,95,84,73,29.93,29.83,6,1,9,0.00
2013-6-19,88.5,78.8,71.1,78.2,73.0,69.9,96,84,60,29.97,29.86,6,1,9,0.00
2013-6-20,92.1,83.7,74.5,77.3,73.7,71.0,94,73,51,30.01,29.91,10,3,12,0.00
2013-6-21,91.7,83.6,75.0,76.9,73.1,70.1,91,72,51,30.04,29.94,10,3,12,0.00
2013-6-22,91.7,83.3,74.0,76.9,72.6,70.0,88,71,52,30.02,29.86,10,3,11,0.00
2013-6-23,91.5,83.6,75.6,75.5,72.5,70.0,88,70,50,29.97,29.86,14,3,14,0.00
2013-6-24,92.6,84.2,75.8,76.2,72.5,69.7,89,69,48,30.01,29.86,13,3,13,0.01
2013-6-25,93.4,84.9,76.4,75.7,73.1,69.6,88,69,48,29.98,29.80,13,5,15,0.00
2013-6-26,83.4,81.2,78.6,74.9,73.5,71.6,80,77,75,29.84,29.83,9,4,11,0.00
2013-7-4,82.4,78.6,73.4,70.8,68.1,64.5,75,70,63,29.92,29.88,3,1,6,0.35
2013-7-5,94.4,81.9,66.8,71.5,65.8,61.8,89,61,39,29.97,29.84,5,1,6,0.00
2013-7-6,94.4,81.6,70.5,75.0,66.4,61.2,84,62,36,29.92,29.82,6,2,7,0.00
2013-7-7,94.5,84.1,73.1,74.7,70.6,66.3,84,65,42,29.96,29.87,13,2,15,0.00
2013-7-8,95.6,83.1,75.0,75.7,73.1,71.6,90,74,47,30.05,29.94,9,2,10,0.00
2013-7-9,94.1,79.8,75.7,75.9,72.2,70.3,87,78,50,30.08,30.02,6,1,10,1.20
2013-7-10,101.5,101.4,101.2,71.2,70.5,68.5,38,37,35,29.91,29.88,4,2,10,0.00
2013-7-11,91.1,83.8,78.1,75.7,73.8,72.2,83,73,58,29.92,29.85,3,1,6,0.06
2013-7-12,84.6,84.6,84.6,74.2,74.2,74.2,71,71,71,29.89,29.89,1,1,5,0.00
2013-7-13,83.7,83.5,83.3,72.9,72.7,72.5,70,70,70,29.89,29.89,3,2,5,0.00
2013-7-14,75.7,74.2,72.9,70.4,70.0,69.5,89,87,83,29.90,29.88,9,4,9,0.30
2013-7-15,70.2,70.0,69.7,68.4,68.2,67.9,94,94,94,29.93,29.92,4,1,6,0.23
2013-7-18,96.0,90.0,76.0,76.5,73.1,68.7,81,59,44,30.13,29.94,15,1,15,0.00
2013-7-19,83.0,77.4,74.1,76.0,72.8,68.3,92,86,75,30.04,29.90,6,1,8,0.05
2013-7-20,94.4,80.6,72.3,77.9,73.3,70.5,95,80,52,29.94,29.81,6,1,11,0.00
2013-7-21,93.9,83.6,73.8,78.0,74.1,71.2,93,75,52,29.90,29.81,7,2,11,0.00
2013-7-22,95.7,85.5,77.2,78.1,75.0,73.3,90,72,52,29.94,29.82,15,2,15,0.00
2013-7-23,96.4,85.3,77.9,78.7,75.0,70.7,87,72,55,29.94,29.77,10,2,10,0.00
2013-7-24,89.8,81.5,73.0,77.1,73.2,70.2,92,77,61,29.97,29.81,13,1,13,0.28
2013-7-25,92.5,82.8,72.4,76.6,73.0,69.3,91,74,52,30.01,29.92,7,0,9,0.00
2013-7-26,79.9,78.6,77.4,73.9,72.9,71.8,84,83,80,29.98,29.79,9,1,9,0.00
2013-7-27,86.7,80.0,74.5,73.4,71.7,67.9,86,76,58,29.98,29.86,6,0,9,0.00
2013-7-28,90.2,79.0,69.0,74.8,70.2,66.6,93,76,54,29.96,29.83,7,1,11,0.00
2013-7-29,92.2,83.6,76.0,77.4,73.9,71.7,92,74,57,29.98,29.89,9,3,11,0.00
2013-7-30,95.1,85.5,77.5,77.0,73.0,70.2,85,67,48,30.05,29.91,14,3,14,0.00
2013-7-31,82.8,78.8,78.2,71.2,69.6,68.5,75,74,66,30.02,29.89,11,1,11,0.00
2013-8-1,98.9,85.0,78.2,78.5,72.3,69.1,82,68,40,29.98,29.83,15,1,15,0.00
2013-8-2,97.3,86.2,77.5,77.6,73.1,71.3,86,67,44,29.91,29.82,14,2,14,0.00
2013-8-3,96.5,86.7,79.2,77.8,72.3,68.1,81,63,40,29.97,29.87,9,2,10,0.00
2013-8-4,95.6,85.4,79.2,77.2,73.5,70.2,81,69,46,30.03,29.88,5,0,9,0.00
2013-8-5,98.1,89.0,85.2,74.9,72.0,66.6,69,59,37,29.98,29.79,9,1,15,0.00
2013-8-6,98.6,89.0,84.2,76.5,71.9,67.9,69,58,39,29.88,29.75,8,2,11,0.00
2013-8-7,86.5,80.7,80.1,71.6,70.4,69.4,72,71,61,29.86,29.75,7,1,9,0.00
2013-8-8,98.6,86.4,80.1,77.4,71.6,69.6,74,63,41,29.87,29.72,7,1,9,0.00
2013-8-9,98.5,87.2,77.0,74.3,70.5,65.5,85,60,35,29.91,29.79,9,1,10,0.00
2013-8-10,100.2,86.8,74.9,76.7,71.6,64.7,81,63,37,29.99,29.87,10,1,13,0.00
2013-8-11,98.2,85.2,74.7,76.7,72.8,68.8,89,68,41,30.02,29.90,10,1,10,0.00
2013-8-12,97.0,85.7,76.6,75.8,72.8,68.7,88,67,42,30.01,29.87,10,1,10,0.00
2013-8-13,96.1,81.7,78.3,77.4,73.4,70.9,87,77,50,29.95,29.84,8,1,11,0.02
2013-8-14,87.4,69.9,0.0,76.3,62.3,0.0,83,64,62,29.98,29.88,7,1,10,0.00
2013-8-15,87.4,79.9,68.6,70.1,65.2,60.3,81,62,44,30.04,29.91,6,1,6,0.00
2013-8-16,76.0,76.0,76.0,63.0,63.0,63.0,64,64,64,30.05,29.93,1,1,1,0.00
2013-8-17,76.0,76.0,76.0,63.0,63.0,63.0,64,64,64,30.06,29.93,1,1,1,0.00
2013-8-18,76.0,76.0,76.0,63.0,63.0,63.0,64,64,64,30.06,29.95,1,1,1,0.00
2013-8-19,76.0,76.0,76.0,63.0,63.0,63.0,64,64,64,30.06,29.91,1,1,1,0.00
2013-8-20,76.0,76.0,76.0,63.0,63.0,63.0,64,64,64,30.03,29.92,1,1,1,0.00
2013-8-21,76.0,76.0,76.0,63.0,63.0,63.0,64,64,64,30.08,29.95,1,1,1,0.00
2013-8-22,76.0,76.0,76.0,63.0,63.0,63.0,64,64,64,30.06,29.90,1,1,1,0.00
2013-8-23,76.0,76.0,76.0,63.0,63.0,63.0,64,64,64,30.00,29.86,1,1,1,0.00
2013-8-24,76.0,76.0,76.0,63.0,63.0,63.0,64,64,64,30.05,29.93,1,1,1,0.00
2013-8-25,76.0,76.0,76.0,63.0,63.0,63.0,64,64,64,30.13,30.01,1,1,1,0.00
2013-8-26,76.0,76.0,76.0,63.0,63.0,63.0,64,64,64,30.15,30.02,1,1,1,0.00
2013-8-27,76.0,76.0,76.0,63.0,63.0,63.0,64,64,64,30.11,29.98,1,1,1,0.00
2013-8-28,76.0,76.0,76.0,63.0,63.0,63.0,64,64,64,30.07,29.95,1,1,1,0.00
2013-8-29,76.0,76.0,76.0,63.0,63.0,63.0,64,64,64,30.04,29.91,1,1,1,0.00
2013-8-30,76.0,76.0,76.0,63.0,63.0,63.0,64,64,64,29.98,29.83,1,1,1,0.00
2013-8-31,76.0,41.5,0.0,63.0,34.4,0.0,64,35,64,29.89,29.75,1,0,1,0.00
2013-9-1,0.0,0.0,0.0,0.0,0.0,0.0,0,0,100,29.87,29.73,0,0,0,0.00
2013-9-2,0.0,0.0,0.0,0.0,0.0,0.0,0,0,100,29.97,29.82,0,0,0,0.00
2013-9-3,0.0,0.0,0.0,0.0,0.0,0.0,0,0,100,29.95,29.82,0,0,0,0.00
2013-9-4,0.0,0.0,0.0,0.0,0.0,0.0,0,0,100,30.03,29.90,0,0,0,0.00
2013-9-5,0.0,0.0,0.0,0.0,0.0,0.0,0,0,100,30.09,29.97,0,0,0,0.00
2013-9-11,0.0,0.0,0.0,0.0,0.0,0.0,0,0,100,30.11,29.98,0,0,0,0.00
2013-9-12,0.0,0.0,0.0,0.0,0.0,0.0,0,0,100,30.05,29.88,0,0,0,0.00
2013-9-13,0.0,0.0,0.0,0.0,0.0,0.0,0,0,100,29.94,29.80,0,0,0,0.00
2013-9-14,0.0,0.0,0.0,0.0,0.0,0.0,0,0,100,29.98,29.85,0,0,0,0.00
2013-9-15,0.0,0.0,0.0,0.0,0.0,0.0,0,0,100,30.01,29.93,0,0,0,0.00
2013-9-16,0.0,0.0,0.0,0.0,0.0,0.0,0,0,100,30.01,29.94,0,0,0,0.00
2013-9-17,0.0,0.0,0.0,0.0,0.0,0.0,0,0,100,30.06,29.92,0,0,0,0.00
2013-9-18,0.0,0.0,0.0,0.0,0.0,0.0,0,0,100,30.00,29.86,0,0,0,0.00
2013-9-19,0.0,0.0,0.0,0.0,0.0,0.0,0,0,100,29.98,29.82,0,0,0,0.00
2013-9-20,0.0,0.0,0.0,0.0,0.0,0.0,0,0,100,29.90,29.79,0,0,0,0.00
2013-9-21,0.0,0.0,0.0,0.0,0.0,0.0,0,0,100,29.93,29.81,0,0,0,0.00
2013-9-22,0.0,0.0,0.0,0.0,0.0,0.0,0,0,100,29.92,29.78,0,0,0,0.00
2013-9-23,0.0,0.0,0.0,0.0,0.0,0.0,0,0,100,29.85,29.73,0,0,0,0.00
2013-9-24,0.0,0.0,0.0,0.0,0.0,0.0,0,0,100,29.82,29.78,0,0,0,0.00
2013-9-25,0.0,0.0,0.0,0.0,0.0,0.0,0,0,100,29.87,29.75,0,0,0,0.00
2013-9-26,0.0,0.0,0.0,0.0,0.0,0.0,0,0,100,29.88,29.78,0,0,0,0.00
2013-9-27,0.0,0.0,0.0,0.0,0.0,0.0,0,0,100,29.95,29.84,0,0,0,0.00
2013-9-28,0.0,0.0,0.0,0.0,0.0,0.0,0,0,100,29.98,29.87,0,0,0,0.00
2013-9-29,0.0,0.0,0.0,0.0,0.0,0.0,0,0,100,30.00,29.86,0,0,0,0.00
2013-9-30,0.0,0.0,0.0,0.0,0.0,0.0,0,0,100,29.88,29.78,0,0,0,0.00
2013-10-1,0.0,0.0,0.0,0.0,0.0,0.0,0,0,100,29.93,29.82,0,0,0,0.00
2013-10-2,0.0,0.0,0.0,0.0,0.0,0.0,0,0,100,29.98,29.85,0,0,0,0.00
2013-10-3,0.0,0.0,0.0,0.0,0.0,0.0,0,0,100,29.93,29.81,0,0,0,0.00
2013-10-4,0.0,0.0,0.0,0.0,0.0,0.0,0,0,100,29.90,29.82,0,0,0,0.00
2013-10-5,0.0,0.0,0.0,0.0,0.0,0.0,0,0,100,30.04,29.86,0,0,0,0.00
2013-10-6,0.0,0.0,0.0,0.0,0.0,0.0,0,0,100,30.07,29.96,0,0,0,0.00
2013-10-7,0.0,0.0,0.0,0.0,0.0,0.0,0,0,100,30.12,30.01,0,0,0,0.00
2013-10-8,0.0,0.0,0.0,0.0,0.0,0.0,0,0,100,30.10,29.98,0,0,0,0.00
2013-10-9,0.0,0.0,0.0,0.0,0.0,0.0,0,0,100,30.07,29.97,0,0,0,0.00
2013-10-10,0.0,0.0,0.0,0.0,0.0,0.0,0,0,100,30.06,29.89,0,0,0,0.00
2013-10-11,0.0,0.0,0.0,0.0,0.0,0.0,0,0,100,29.95,29.82,0,0,0,0.00
2013-10-12,0.0,0.0,0.0,0.0,0.0,0.0,0,0,100,30.04,29.87,0,0,0,0.00
2013-10-13,0.0,0.0,0.0,0.0,0.0,0.0,0,0,100,30.18,30.03,0,0,0,0.00
2013-10-14,0.0,0.0,0.0,0.0,0.0,0.0,0,0,100,30.12,29.92,0,0,0,0.00
2013-10-15,0.0,0.0,0.0,0.0,0.0,0.0,0,0,100,30.01,29.89,0,0,0,0.00
2013-10-16,0.0,0.0,0.0,0.0,0.0,0.0,0,0,100,30.04,29.95,0,0,0,0.00
2013-10-17,0.0,0.0,0.0,0.0,0.0,0.0,0,0,100,30.10,29.96,0,0,0,0.00
2013-10-18,0.0,0.0,0.0,0.0,0.0,0.0,0,0,100,30.01,29.88,0,0,0,0.00
2013-10-19,0.0,0.0,0.0,0.0,0.0,0.0,0,0,100,30.17,30.01,0,0,0,0.00
2013-10-20,0.0,0.0,0.0,0.0,0.0,0.0,0,0,100,30.06,29.88,0,0,0,0.00
2013-10-21,0.0,0.0,0.0,0.0,0.0,0.0,0,0,100,30.05,29.90,0,0,0,0.00
2013-10-22,0.0,0.0,0.0,0.0,0.0,0.0,0,0,100,30.12,29.99,0,0,0,0.00
2013-10-23,0.0,0.0,0.0,0.0,0.0,0.0,0,0,100,30.11,30.01,0,0,0,0.00
2013-10-24,0.0,0.0,0.0,0.0,0.0,0.0,0,0,100,30.18,30.03,0,0,0,0.00
2013-11-7,0.0,0.0,0.0,0.0,0.0,0.0,0,0,100,30.37,30.35,0,0,0,0.00
2013-11-8,0.0,0.0,0.0,0.0,0.0,0.0,0,0,100,30.35,30.12,0,0,0,0.00
2013-11-9,0.0,0.0,0.0,0.0,0.0,0.0,0,0,100,30.22,30.12,0,0,0,0.00
2013-11-10,0.0,0.0,0.0,0.0,0.0,0.0,0,0,100,30.33,30.21,0,0,0,0.00
2013-11-11,0.0,0.0,0.0,0.0,0.0,0.0,0,0,100,30.26,30.14,0,0,0,0.00
2013-11-12,0.0,0.0,0.0,0.0,0.0,0.0,0,0,100,30.64,30.23,0,0,0,0.00
2013-11-13,0.0,0.0,0.0,0.0,0.0,0.0,0,0,100,30.66,30.39,0,0,0,0.00
2013-11-15,0.0,0.0,0.0,0.0,0.0,0.0,0,0,100,29.87,29.84,0,0,0,0.00
2013-11-16,0.0,0.0,0.0,0.0,0.0,0.0,0,0,100,29.87,29.69,0,0,0,0.00
2013-11-17,0.0,0.0,0.0,0.0,0.0,0.0,0,0,100,29.98,29.68,0,0,0,0.00
2013-11-18,0.0,0.0,0.0,0.0,0.0,0.0,0,0,100,30.16,29.98,0,0,0,0.00
2013-11-19,0.0,0.0,0.0,0.0,0.0,0.0,0,0,100,30.17,30.11,0,0,0,0.00
2013-11-21,0.0,0.0,0.0,0.0,0.0,0.0,0,0,100,30.10,29.96,0,0,0,0.00
2013-11-22,66.2,6.6,0.0,44.4,5.8,0.0,92,12,47,30.39,30.09,0,0,0,0.07
2013-11-23,45.3,42.2,40.2,43.7,39.8,35.5,95,91,78,30.51,30.37,0,0,0,0.18
2013-11-24,41.1,36.9,34.8,35.3,30.4,25.4,87,78,55,30.57,30.34,0,0,0,0.06
2013-11-25,37.2,35.9,34.7,35.8,34.1,31.4,95,93,87,30.34,30.12,0,0,0,0.61
2013-11-26,47.8,41.6,37.1,41.9,37.2,30.5,95,85,70,30.31,30.08,0,0,0,0.00
2013-11-27,49.2,37.6,29.4,30.8,27.3,23.6,84,67,43,30.44,30.31,0,0,0,0.00
2013-11-28,53.4,38.0,28.8,36.6,30.2,24.9,91,76,44,30.46,30.35,0,0,0,0.00
2013-11-29,59.2,42.7,30.3,40.7,34.6,28.0,95,75,44,30.53,30.35,0,0,0,0.00
2013-11-30,67.4,51.7,39.1,52.1,43.7,35.5,90,75,54,30.36,30.15,0,0,0,0.00
2013-12-1,69.4,59.0,49.0,59.7,54.0,45.3,91,84,70,30.16,29.85,0,0,0,0.00
2013-12-2,65.6,55.3,48.3,56.6,51.3,45.2,94,87,70,29.85,29.64,0,0,0,0.00
2013-12-3,74.5,57.1,46.2,56.0,48.3,44.0,96,76,35,29.66,29.49,0,0,0,0.03
2013-12-4,81.4,66.5,56.9,65.4,58.7,46.7,94,77,52,29.82,29.56,0,0,0,0.00
2013-12-5,56.9,40.0,33.7,46.8,33.5,30.2,93,78,65,30.12,29.80,0,0,0,0.17
2013-12-6,35.0,31.9,27.9,33.5,30.1,25.1,95,93,89,30.47,30.05,0,0,0,1.27
2013-12-7,32.7,29.9,27.2,30.2,27.3,24.4,93,90,86,30.50,30.27,0,0,0,0.00
2013-12-8,38.7,35.6,31.7,36.8,33.7,29.2,94,92,88,30.27,30.05,0,0,0,0.01
2013-12-9,38.1,35.6,32.6,36.5,33.4,28.6,94,92,85,30.37,30.13,0,0,0,0.00
2013-12-10,44.9,33.2,25.4,30.5,26.3,22.0,89,76,55,30.51,30.35,0,0,0,0.00
2013-12-11,48.9,39.5,27.8,38.0,32.8,25.1,92,78,58,30.56,30.33,0,0,0,0.00
2013-12-12,53.0,41.3,33.5,35.7,31.6,28.5,87,70,40,30.61,30.32,0,0,0,0.00
2013-12-13,43.5,41.6,40.1,42.2,37.1,32.0,95,85,66,30.32,29.81,0,0,0,0.56
2013-12-14,46.5,43.0,35.2,45.2,40.3,31.5,95,90,81,30.30,29.78,0,0,0,0.00
2013-12-15,57.1,40.9,29.0,40.7,34.2,27.5,95,79,50,30.35,30.24,0,0,0,0.00
2013-12-16,66.5,48.6,36.2,41.8,37.5,33.0,90,69,35,30.26,30.15,0,0,0,0.00
2013-12-17,68.8,50.2,37.5,46.1,40.0,34.0,92,70,42,30.28,30.19,0,0,0,0.00
2013-12-18,70.8,52.4,36.7,48.0,41.5,33.8,94,69,38,30.27,30.02,0,0,0,0.00
2013-12-19,62.8,53.6,51.5,57.2,50.4,48.0,91,89,82,30.02,29.92,0,0,0,0.00
2013-12-21,54.6,47.5,40.5,53.8,46.3,39.2,97,96,91,29.74,29.51,0,0,0,2.49
2013-12-22,52.6,41.3,32.9,51.8,38.7,28.3,97,91,79,30.38,29.75,0,0,0,0.00
2013-12-23,48.2,37.4,29.7,36.1,31.1,26.5,91,78,57,30.55,30.36,0,0,0,0.00
2013-12-24,55.7,40.8,30.2,37.6,32.4,27.1,90,74,46,30.55,30.28,0,0,0,0.00
2013-12-25,55.5,44.2,33.8,45.4,37.1,30.9,91,77,55,30.38,30.27,0,0,0,0.00
2013-12-26,57.5,43.9,35.5,42.4,37.3,32.6,91,78,55,30.43,30.31,0,0,0,0.00
2013-12-27,60.7,45.6,36.2,43.8,38.5,34.1,94,78,48,30.45,30.31,0,0,0,0.00
2013-12-28,63.7,49.0,37.5,44.0,40.0,34.8,94,73,44,30.31,29.96,0,0,0,0.00
2013-12-29,57.2,45.0,36.4,46.3,36.9,29.3,83,73,63,30.24,29.94,0,0,0,0.00
2013-12-30,47.4,38.5,33.4,29.7,27.7,25.5,75,65,47,30.39,30.21,0,0,0,0.00
2013-12-31,58.4,41.9,29.3,34.3,28.8,24.5,85,62,33,30.44,30.23,0,0,0,0.00
2014-1-1,67.3,49.3,33.4,51.5,40.9,29.7,93,74,54,30.22,29.88,0,0,0,0.00
2014-1-2,47.1,37.3,28.5,35.0,24.4,21.0,75,60,42,30.45,30.09,0,0,0,0.00